createdAt,value
2023-05-02T00:03:27.603Z,22.52
2023-05-02T00:08:39.622Z,20.90
2023-05-02T00:11:15.316Z,20.13
2023-05-02T00:13:58.734Z,18.70
2023-05-02T00:16:30.696Z,23.23
2023-05-02T00:19:05.165Z,21.13
2023-05-02T00:21:33.043Z,21.95
2023-05-02T00:24:00.515Z,20.33
2023-05-02T00:26:28.894Z,20.00
2023-05-02T00:28:56.255Z,20.30
2023-05-02T00:31:23.699Z,20.70
2023-05-02T00:33:51.362Z,21.10
2023-05-02T00:36:20.624Z,21.13
2023-05-02T00:38:48.141Z,19.85
2023-05-02T00:41:20.733Z,22.23
2023-05-02T00:44:03.888Z,23.40
2023-05-02T00:49:44.168Z,22.83
2023-05-02T00:52:31.912Z,22.73
2023-05-02T00:55:04.280Z,22.48
2023-05-02T00:57:45.196Z,21.15
2023-05-02T01:03:31.229Z,27.75
2023-05-02T01:06:35.937Z,24.30
2023-05-02T01:09:25.433Z,23.95
2023-05-02T01:12:30.259Z,24.38
2023-05-02T01:17:53.173Z,24.45
2023-05-02T01:20:35.128Z,22.40
2023-05-02T01:26:26.802Z,20.02
2023-05-02T01:32:09.363Z,16.98
2023-05-02T01:34:43.376Z,18.13
2023-05-02T01:37:25.535Z,15.90
2023-05-02T01:39:56.731Z,17.38
2023-05-02T01:42:24.862Z,20.48
2023-05-02T01:44:52.937Z,19.48
2023-05-02T01:47:21.570Z,20.27
2023-05-02T01:49:49.749Z,24.35
2023-05-02T01:52:17.757Z,27.17
2023-05-02T01:54:45.649Z,23.30
2023-05-02T01:57:20.870Z,20.00
2023-05-02T02:00:02.137Z,20.30
2023-05-02T02:05:26.974Z,14.50
2023-05-02T02:08:06.973Z,19.35
2023-05-02T02:10:43.019Z,19.25
2023-05-02T02:13:18.904Z,18.90
2023-05-02T02:15:51.559Z,22.17
2023-05-02T02:18:23.261Z,21.60
2023-05-02T02:20:52.629Z,21.83
2023-05-02T02:23:21.301Z,18.85
2023-05-02T02:25:50.791Z,23.42
2023-05-02T02:28:18.197Z,23.00
2023-05-02T02:30:47.370Z,23.45
2023-05-02T02:33:14.849Z,24.30
2023-05-02T02:35:45.282Z,25.92
2023-05-02T02:38:18.572Z,20.15
2023-05-02T02:40:48.880Z,19.20
2023-05-02T02:43:36.685Z,17.85
2023-05-02T02:46:22.775Z,19.63
2023-05-02T02:48:59.460Z,19.40
2023-05-02T02:51:33.179Z,20.13
2023-05-02T02:54:27.722Z,17.73
2023-05-02T02:57:24.587Z,16.33
2023-05-02T03:00:13.820Z,16.55
2023-05-02T03:02:43.307Z,17.38
2023-05-02T03:05:11.420Z,16.38
2023-05-02T03:07:39.000Z,13.65
2023-05-02T03:10:07.097Z,19.23
2023-05-02T03:12:34.597Z,16.25
2023-05-02T03:15:14.969Z,14.43
2023-05-02T03:17:42.345Z,11.63
2023-05-02T03:20:09.933Z,9.35
2023-05-02T03:22:37.266Z,10.55
2023-05-02T03:25:05.121Z,9.15
2023-05-02T03:27:32.485Z,9.73
2023-05-02T03:30:00.770Z,15.40
2023-05-02T03:32:31.440Z,12.05
2023-05-02T03:34:59.277Z,12.07
2023-05-02T03:37:26.698Z,9.82
2023-05-02T03:39:54.090Z,10.57
2023-05-02T03:42:22.591Z,10.57
2023-05-02T03:44:53.756Z,9.00
2023-05-02T03:47:21.319Z,8.93
2023-05-02T03:49:48.693Z,12.13
2023-05-02T03:52:16.139Z,10.35
2023-05-02T03:54:43.761Z,8.82
2023-05-02T03:57:12.407Z,9.75
2023-05-02T03:59:42.865Z,13.60
2023-05-02T04:02:11.420Z,14.75
2023-05-02T04:04:40.280Z,9.50
2023-05-02T04:07:08.230Z,10.63
2023-05-02T04:09:35.674Z,11.57
2023-05-02T04:12:03.221Z,11.15
2023-05-02T04:14:30.878Z,12.77
2023-05-02T04:16:58.300Z,19.00
2023-05-02T04:19:26.090Z,15.23
2023-05-02T04:21:53.584Z,17.30
2023-05-02T04:24:21.008Z,14.18
2023-05-02T04:26:49.109Z,13.88
2023-05-02T04:29:16.568Z,12.57
2023-05-02T04:31:44.305Z,12.82
2023-05-02T04:34:11.665Z,18.08
2023-05-02T04:36:39.125Z,15.13
2023-05-02T04:39:07.851Z,19.90
2023-05-02T04:41:35.511Z,15.73
2023-05-02T04:44:04.465Z,12.90
2023-05-02T04:46:31.957Z,14.55
2023-05-02T04:48:59.463Z,16.38
2023-05-02T04:51:28.047Z,12.98
2023-05-02T04:53:55.698Z,12.68
2023-05-02T04:56:23.541Z,10.80
2023-05-02T04:58:51.517Z,13.45
2023-05-02T05:01:19.033Z,11.30
2023-05-02T05:03:46.645Z,10.43
2023-05-02T05:06:14.880Z,13.55
2023-05-02T05:08:50.951Z,14.80
2023-05-02T05:11:19.567Z,12.70
2023-05-02T05:13:46.982Z,10.25
2023-05-02T05:16:15.905Z,12.23
2023-05-02T05:18:44.419Z,8.38
2023-05-02T05:21:14.483Z,14.32
2023-05-02T05:23:46.466Z,11.98
2023-05-02T05:26:15.836Z,12.30
2023-05-02T05:28:44.054Z,15.45
2023-05-02T05:31:18.313Z,10.48
2023-05-02T05:33:45.931Z,15.50
2023-05-02T05:36:17.394Z,10.55
2023-05-02T05:38:45.048Z,10.68
2023-05-02T05:41:12.703Z,16.05
2023-05-02T05:43:40.296Z,10.43
2023-05-02T05:46:07.667Z,10.32
2023-05-02T05:48:35.087Z,17.23
2023-05-02T05:51:06.544Z,11.77
2023-05-02T05:53:34.266Z,17.02
2023-05-02T05:56:10.732Z,15.00
2023-05-02T05:58:38.994Z,15.43
2023-05-02T06:01:07.325Z,14.52
2023-05-02T06:03:37.745Z,13.20
2023-05-02T06:06:05.739Z,10.48
2023-05-02T06:08:33.149Z,20.42
2023-05-02T06:11:00.814Z,17.77
2023-05-02T06:13:28.266Z,15.98
2023-05-02T06:15:55.960Z,21.33
2023-05-02T06:18:23.467Z,19.27
2023-05-02T06:20:51.007Z,14.30
2023-05-02T06:23:18.598Z,14.90
2023-05-02T06:25:45.965Z,17.05
2023-05-02T06:28:13.355Z,13.77
2023-05-02T06:30:41.229Z,15.93
2023-05-02T06:33:08.788Z,14.55
2023-05-02T06:35:36.916Z,16.02
2023-05-02T06:38:04.387Z,16.25
2023-05-02T06:40:31.884Z,17.73
2023-05-02T06:42:59.289Z,18.60
2023-05-02T06:45:26.823Z,14.32
2023-05-02T06:47:54.353Z,15.63
2023-05-02T06:50:21.905Z,11.93
2023-05-02T06:52:49.462Z,11.15
2023-05-02T06:55:16.913Z,12.02
2023-05-02T06:57:44.437Z,12.57
2023-05-02T07:00:12.451Z,10.45
2023-05-02T07:02:39.914Z,13.93
2023-05-02T07:05:07.745Z,13.02
2023-05-02T07:07:36.594Z,14.43
2023-05-02T07:10:16.838Z,13.20
2023-05-02T07:18:17.031Z,16.17
2023-05-02T07:20:52.826Z,14.10
2023-05-02T07:23:46.296Z,13.48
2023-05-02T07:26:22.414Z,13.82
2023-05-02T07:32:05.552Z,12.20
2023-05-02T07:34:48.495Z,18.67
2023-05-02T07:37:27.881Z,15.93
2023-05-02T07:40:06.707Z,8.98
2023-05-02T07:42:35.924Z,14.95
2023-05-02T07:45:30.171Z,13.55
2023-05-02T07:47:59.497Z,11.70
2023-05-02T07:50:34.078Z,13.23
2023-05-02T07:56:27.954Z,15.30
2023-05-02T07:58:59.232Z,10.98
2023-05-02T08:01:35.710Z,12.57
2023-05-02T08:04:04.663Z,10.98
2023-05-02T08:06:39.348Z,13.60
2023-05-02T08:09:07.236Z,12.77
2023-05-02T08:11:47.222Z,13.85
2023-05-02T08:14:20.424Z,7.78
2023-05-02T08:16:48.857Z,11.32
2023-05-02T08:19:33.303Z,7.68
2023-05-02T08:22:08.712Z,8.90
2023-05-02T08:24:44.212Z,11.98
2023-05-02T08:27:13.490Z,11.23
2023-05-02T08:29:51.401Z,8.52
2023-05-02T08:32:39.248Z,10.20
2023-05-02T08:35:07.541Z,9.57
2023-05-02T08:37:37.698Z,8.88
2023-05-02T08:40:10.201Z,9.45
2023-05-02T08:42:37.753Z,6.13
2023-05-02T08:45:26.157Z,8.30
2023-05-02T08:47:53.785Z,8.73
2023-05-02T08:50:31.866Z,5.07
2023-05-02T08:53:02.421Z,7.93
2023-05-02T08:55:31.196Z,7.13
2023-05-02T09:00:52.344Z,7.28
2023-05-02T09:03:40.012Z,9.10
2023-05-02T09:06:37.246Z,6.88
2023-05-02T09:09:19.194Z,6.45
2023-05-02T09:11:54.423Z,8.60
2023-05-02T09:15:00.889Z,8.50
2023-05-02T09:17:56.642Z,11.20
2023-05-02T09:20:41.397Z,6.70
2023-05-02T09:29:26.872Z,10.75
2023-05-02T09:31:56.569Z,6.93
2023-05-02T09:34:24.548Z,7.20
2023-05-02T09:36:56.354Z,7.47
2023-05-02T09:39:27.996Z,7.63
2023-05-02T09:42:02.980Z,7.10
2023-05-02T09:44:46.915Z,10.05
2023-05-02T09:47:29.691Z,7.03
2023-05-02T09:49:58.775Z,8.98
2023-05-02T09:52:33.489Z,7.32
2023-05-02T09:55:24.570Z,7.40
2023-05-02T09:57:54.042Z,10.65
2023-05-02T10:00:38.367Z,7.97
2023-05-02T10:03:08.678Z,6.85
2023-05-02T10:05:41.209Z,9.82
2023-05-02T10:08:10.531Z,5.03
2023-05-02T10:10:39.909Z,6.63
2023-05-02T10:13:10.055Z,7.38
2023-05-02T10:15:43.401Z,7.20
2023-05-02T10:18:21.747Z,10.32
2023-05-02T10:21:06.691Z,8.85
2023-05-02T10:23:50.914Z,9.15
2023-05-02T10:26:52.277Z,7.88
2023-05-02T10:29:26.385Z,10.30
2023-05-02T10:32:14.256Z,12.00
2023-05-02T10:34:48.060Z,17.90
2023-05-02T10:37:37.198Z,14.40
2023-05-02T10:40:25.120Z,10.52
2023-05-02T10:43:15.981Z,13.05
2023-05-02T10:45:49.014Z,8.98
2023-05-02T10:48:59.983Z,8.57
2023-05-02T10:51:53.122Z,6.65
2023-05-02T10:57:14.350Z,10.07
2023-05-02T10:59:46.077Z,7.15
2023-05-02T11:05:14.469Z,6.38
2023-05-02T11:07:56.708Z,5.72
2023-05-02T11:20:04.796Z,7.03
2023-05-02T11:22:48.707Z,8.70
2023-05-02T11:25:43.925Z,5.65
2023-05-02T11:29:04.657Z,8.27
2023-05-02T11:32:36.959Z,8.50
2023-05-02T11:35:15.527Z,5.43
2023-05-02T11:37:44.623Z,6.82
2023-05-02T11:43:33.970Z,7.20
2023-05-02T11:46:05.901Z,8.93
2023-05-02T11:48:40.303Z,8.43
2023-05-02T11:51:11.218Z,8.48
2023-05-02T11:53:43.817Z,7.50
2023-05-02T11:56:25.099Z,6.80
2023-05-02T11:59:03.477Z,7.95
2023-05-02T12:01:34.361Z,6.35
2023-05-02T12:04:08.672Z,8.70
2023-05-02T12:06:36.194Z,10.35
2023-05-02T12:09:11.382Z,10.90
2023-05-02T12:11:38.933Z,6.95
2023-05-02T12:14:18.348Z,8.73
2023-05-02T12:16:51.227Z,10.50
2023-05-02T12:19:34.315Z,9.93
2023-05-02T12:22:23.810Z,8.77
2023-05-02T12:25:12.076Z,6.20
2023-05-02T12:27:44.900Z,7.60
2023-05-02T12:36:28.210Z,9.82
2023-05-02T12:39:15.386Z,11.02
2023-05-02T12:50:29.120Z,8.65
2023-05-02T12:53:05.301Z,8.27
2023-05-02T12:55:46.210Z,10.25
2023-05-02T12:58:37.304Z,8.10
2023-05-02T13:01:19.491Z,10.32
2023-05-02T13:03:54.365Z,11.50
2023-05-02T13:06:44.058Z,8.15
2023-05-02T13:09:15.251Z,8.43
2023-05-02T13:12:15.411Z,9.63
2023-05-02T13:15:18.075Z,9.88
2023-05-02T13:17:49.041Z,10.10
2023-05-02T13:23:21.979Z,9.10
2023-05-02T13:28:39.244Z,9.38
2023-05-02T13:31:18.262Z,13.38
2023-05-02T13:34:01.881Z,7.28
2023-05-02T13:36:40.278Z,10.95
2023-05-02T13:39:43.188Z,10.00
2023-05-02T13:42:11.269Z,8.25
2023-05-02T13:44:44.848Z,8.80
2023-05-02T13:47:20.725Z,9.20
2023-05-02T13:49:51.444Z,9.88
2023-05-02T13:52:29.770Z,10.13
2023-05-02T13:55:15.920Z,9.77
2023-05-02T14:00:57.744Z,8.65
2023-05-02T14:06:20.962Z,9.57
2023-05-02T14:08:57.427Z,5.72
2023-05-02T14:11:28.357Z,9.07
2023-05-02T14:14:08.339Z,10.10
2023-05-02T14:17:05.160Z,9.15
2023-05-02T14:19:45.740Z,8.07
2023-05-02T14:22:45.353Z,12.02
2023-05-02T14:28:09.381Z,8.05
2023-05-02T14:30:37.640Z,9.95
2023-05-02T14:33:27.858Z,8.02
2023-05-02T14:36:20.753Z,9.15
2023-05-02T14:38:54.334Z,8.93
2023-05-02T14:41:33.130Z,9.05
2023-05-02T14:44:31.888Z,7.55
2023-05-02T14:47:07.735Z,7.72
2023-05-02T14:49:38.034Z,8.15
2023-05-02T14:52:43.964Z,9.43
2023-05-02T14:55:24.518Z,9.15
2023-05-02T14:58:22.476Z,9.10
2023-05-02T15:01:18.450Z,11.90
2023-05-02T15:04:04.325Z,11.95
2023-05-02T15:06:42.857Z,7.95
2023-05-02T15:09:12.407Z,10.95
2023-05-02T15:12:17.368Z,10.00
2023-05-02T15:14:49.820Z,10.20
2023-05-02T15:17:17.676Z,10.40
2023-05-02T15:19:50.000Z,8.20
2023-05-02T15:22:18.462Z,9.38
2023-05-02T15:24:47.713Z,10.85
2023-05-02T15:27:15.364Z,11.70
2023-05-02T15:29:42.821Z,13.50
2023-05-02T15:32:10.519Z,10.88
2023-05-02T15:34:39.374Z,10.15
2023-05-02T15:37:09.151Z,13.38
2023-05-02T15:39:39.062Z,12.52
2023-05-02T15:42:10.612Z,9.13
2023-05-02T15:44:50.674Z,11.52
2023-05-02T15:47:27.588Z,12.27
2023-05-02T15:50:03.071Z,12.18
2023-05-02T15:52:36.724Z,16.83
2023-05-02T15:55:06.878Z,13.70
2023-05-02T15:57:37.644Z,11.40
2023-05-02T16:00:18.855Z,9.75
2023-05-02T16:02:49.078Z,10.68
2023-05-02T16:05:27.885Z,11.60
2023-05-02T16:08:06.278Z,12.43
2023-05-02T16:10:37.564Z,9.73
2023-05-02T16:13:09.312Z,11.48
2023-05-02T16:15:38.656Z,13.35
2023-05-02T16:18:07.596Z,9.27
2023-05-02T16:20:57.766Z,12.32
2023-05-02T16:23:32.229Z,14.25
2023-05-02T16:26:13.804Z,13.82
2023-05-02T16:28:48.075Z,12.43
2023-05-02T16:31:30.984Z,9.10
2023-05-02T16:37:39.480Z,12.25
2023-05-02T16:43:23.601Z,9.57
2023-05-02T16:46:08.429Z,11.25
2023-05-02T16:51:28.839Z,11.52
2023-05-02T16:56:57.267Z,10.20
2023-05-02T16:59:51.833Z,9.20
2023-05-02T17:02:21.264Z,8.77
2023-05-02T17:04:58.441Z,11.55
2023-05-02T17:07:28.988Z,13.88
2023-05-02T17:10:00.782Z,7.95
2023-05-02T17:12:30.527Z,11.07
2023-05-02T17:15:04.373Z,13.73
2023-05-02T17:17:32.481Z,12.77
2023-05-02T17:20:03.749Z,8.57
2023-05-02T17:22:43.163Z,8.80
2023-05-02T17:25:18.236Z,9.65
2023-05-02T17:27:49.851Z,8.95
2023-05-02T17:30:25.719Z,9.73
2023-05-02T17:33:32.008Z,10.88
2023-05-02T17:36:16.834Z,10.55
2023-05-02T17:38:54.031Z,17.52
2023-05-02T17:41:22.884Z,11.05
2023-05-02T17:54:51.502Z,7.65
2023-05-02T17:57:19.916Z,8.10
2023-05-02T17:59:48.020Z,5.85
2023-05-02T18:02:18.350Z,5.88
2023-05-02T18:04:58.120Z,10.18
2023-05-02T18:07:37.910Z,7.70
2023-05-02T18:10:07.504Z,7.40
2023-05-02T18:12:37.913Z,7.70
2023-05-02T18:15:12.053Z,7.20
2023-05-02T18:17:44.307Z,6.70
2023-05-02T18:20:29.271Z,7.32
2023-05-02T18:22:59.479Z,6.63
2023-05-02T18:25:29.944Z,7.05
2023-05-02T18:27:58.311Z,4.38
2023-05-02T18:30:30.272Z,7.18
2023-05-02T18:33:01.581Z,7.13
2023-05-02T18:35:49.960Z,5.97
2023-05-02T18:38:30.676Z,8.00
2023-05-02T18:41:16.972Z,7.78
2023-05-02T18:43:51.536Z,9.52
2023-05-02T18:46:22.760Z,8.13
2023-05-02T18:48:50.317Z,9.70
2023-05-02T18:51:24.951Z,5.78
2023-05-02T18:53:52.415Z,6.35
2023-05-02T18:56:21.916Z,6.30
2023-05-02T18:58:49.311Z,7.13
2023-05-02T19:01:22.256Z,8.98
2023-05-02T19:03:52.708Z,8.77
2023-05-02T19:06:31.144Z,9.13
2023-05-02T19:08:58.777Z,7.03
2023-05-02T19:11:29.294Z,7.10
2023-05-02T19:13:59.867Z,7.60
2023-05-02T19:16:29.178Z,6.80
2023-05-02T19:18:57.621Z,6.40
2023-05-02T19:21:27.032Z,6.47
2023-05-02T19:23:58.446Z,5.82
2023-05-02T19:26:32.682Z,6.53
2023-05-02T19:29:09.686Z,5.75
2023-05-02T19:31:40.731Z,7.38
2023-05-02T19:34:11.575Z,5.10
2023-05-02T19:36:40.753Z,5.88
2023-05-02T19:39:14.643Z,7.63
2023-05-02T19:41:46.927Z,6.90
2023-05-02T19:44:24.604Z,5.93
2023-05-02T19:46:55.131Z,8.00
2023-05-02T19:49:36.666Z,3.65
2023-05-02T19:54:52.891Z,9.85
2023-05-02T19:57:30.166Z,8.20
2023-05-02T20:02:56.223Z,4.80
2023-05-02T20:05:25.309Z,6.75
2023-05-02T20:08:04.431Z,4.95
2023-05-02T20:10:34.184Z,6.68
2023-05-02T20:13:07.139Z,5.68
2023-05-02T20:18:23.305Z,8.40
2023-05-02T20:21:01.538Z,5.90
2023-05-02T20:23:38.001Z,5.55
2023-05-02T20:26:16.427Z,5.95
2023-05-02T20:28:54.539Z,7.68
2023-05-02T20:31:29.909Z,4.82
2023-05-02T20:34:23.134Z,4.68
2023-05-02T20:36:58.741Z,6.10
2023-05-02T20:39:34.036Z,5.57
2023-05-02T20:42:04.253Z,5.18
2023-05-02T20:44:48.635Z,6.78
2023-05-02T20:50:32.267Z,6.03
2023-05-02T20:52:59.986Z,8.32
2023-05-02T20:55:27.725Z,4.53
2023-05-02T20:57:55.315Z,7.85
2023-05-02T21:00:22.986Z,4.45
2023-05-02T21:02:52.839Z,8.38
2023-05-02T21:05:23.078Z,7.18
2023-05-02T21:07:52.809Z,5.72
2023-05-02T21:10:24.808Z,5.78
2023-05-02T21:12:57.391Z,5.55
2023-05-02T21:15:27.738Z,4.78
2023-05-02T21:18:05.649Z,7.07
2023-05-02T21:23:25.109Z,8.75
2023-05-02T21:26:03.533Z,6.65
2023-05-02T21:28:32.394Z,7.93
2023-05-02T21:31:12.593Z,5.63
2023-05-02T21:33:42.829Z,5.72
2023-05-02T21:39:00.748Z,7.18
2023-05-02T21:41:38.130Z,5.78
2023-05-02T21:44:07.569Z,7.03
2023-05-02T21:46:45.812Z,5.45
2023-05-02T21:49:30.642Z,6.05
2023-05-02T21:52:01.478Z,5.88
2023-05-02T21:54:42.291Z,6.80
2023-05-02T21:57:28.187Z,8.02
2023-05-02T22:00:27.842Z,8.02
2023-05-02T22:06:29.537Z,6.80
2023-05-02T22:09:06.320Z,5.88
2023-05-02T22:11:40.542Z,5.45
2023-05-02T22:14:09.558Z,8.65
2023-05-02T22:17:04.039Z,6.43
2023-05-02T22:19:32.100Z,6.88
2023-05-02T22:22:01.676Z,9.88
2023-05-02T22:24:29.231Z,6.20
2023-05-02T22:26:56.806Z,7.68
2023-05-02T22:29:24.291Z,10.05
2023-05-02T22:31:53.639Z,8.15
2023-05-02T22:37:10.372Z,7.35
2023-05-02T22:39:48.176Z,6.60
2023-05-02T22:42:18.156Z,7.18
2023-05-02T22:44:59.157Z,6.90
2023-05-02T22:47:29.615Z,8.07
2023-05-02T22:50:01.448Z,7.10
2023-05-02T22:52:34.019Z,8.40
2023-05-02T22:55:17.306Z,5.57
2023-05-02T23:00:23.830Z,8.15
2023-05-02T23:02:52.772Z,10.68
2023-05-02T23:05:20.150Z,7.28
2023-05-02T23:07:50.830Z,6.82
2023-05-02T23:10:18.302Z,8.35
2023-05-02T23:12:46.065Z,7.57
2023-05-02T23:15:14.828Z,5.82
2023-05-02T23:17:42.412Z,8.40
2023-05-02T23:20:10.451Z,6.35
2023-05-02T23:22:42.860Z,5.78
2023-05-02T23:25:11.539Z,7.50
2023-05-02T23:27:39.058Z,9.50
2023-05-02T23:30:09.256Z,10.63
2023-05-02T23:32:36.803Z,5.43
2023-05-02T23:35:05.877Z,8.63
2023-05-02T23:37:33.505Z,10.18
2023-05-02T23:40:03.572Z,5.75
2023-05-02T23:42:32.085Z,8.32
2023-05-02T23:44:59.446Z,6.93
2023-05-02T23:47:27.186Z,9.93
2023-05-02T23:49:54.614Z,7.43
2023-05-02T23:52:21.988Z,13.35
2023-05-02T23:54:49.457Z,9.57
2023-05-02T23:57:16.832Z,9.70
2023-05-02T23:59:44.342Z,8.15
